Time;durP1;ratioP1;P1;durP2;ratioP2;P2;SDS_P1;SDS_P2;PMS_P1;PMS_P2;Temp;Humidity;BMP_temperature;BMP_pressure;BME280_temperature;BME280_humidity;BME280_pressure;Samples;Min_cycle;Max_cycle;Signal;HPM_P1;HPM_P2
2022/12/21 00:01:18;;;;;;;671.30;158.38;;;-1.20;99.90;;;;;;5073382;28;20021;-77
2022/12/21 00:03:48;;;;;;;877.72;185.98;;;-1.10;99.90;;;;;;5089142;28;20375;-76
2022/12/21 00:06:13;;;;;;;539.85;153.02;;;-1.20;99.90;;;;;;5082805;28;20099;-76
2022/12/21 00:08:42;;;;;;;649.47;174.80;;;-1.20;99.90;;;;;;5082592;28;20497;-75
2022/12/21 00:11:09;;;;;;;741.08;190.30;;;-1.10;99.90;;;;;;5090474;28;20185;-76
2022/12/21 00:13:35;;;;;;;814.40;214.00;;;-1.10;99.90;;;;;;5088139;28;20016;-76
2022/12/21 00:16:04;;;;;;;794.67;194.10;;;-1.20;99.90;;;;;;5071980;28;20416;-77
2022/12/21 00:18:34;;;;;;;608.17;173.90;;;-1.30;99.90;;;;;;5073217;28;20123;-75
2022/12/21 00:21:03;;;;;;;692.33;179.20;;;-1.20;99.90;;;;;;5073379;28;20024;-76
2022/12/21 00:23:29;;;;;;;626.60;208.23;;;-1.20;99.90;;;;;;5073079;28;20025;-75
2022/12/21 00:25:55;;;;;;;637.70;223.73;;;-1.20;99.90;;;;;;5079367;28;20020;-76
2022/12/21 00:28:21;;;;;;;638.97;191.15;;;-1.10;99.90;;;;;;5093137;28;20016;-77
2022/12/21 00:30:47;;;;;;;581.63;171.25;;;-1.10;99.90;;;;;;5093590;28;20101;-75
2022/12/21 00:33:13;;;;;;;457.45;145.57;;;-1.10;99.90;;;;;;5093815;28;20690;-76
2022/12/21 00:35:39;;;;;;;514.38;150.15;;;-1.10;99.90;;;;;;5095720;28;20027;-75
2022/12/21 00:38:05;;;;;;;493.30;155.07;;;-1.10;99.90;;;;;;5095675;28;20020;-75
2022/12/21 00:40:31;;;;;;;560.00;144.57;;;-1.10;99.90;;;;;;5096745;28;20027;-74
2022/12/21 00:42:56;;;;;;;496.50;135.65;;;-1.20;99.90;;;;;;5096796;28;20474;-75
2022/12/21 00:45:22;;;;;;;551.30;139.80;;;-1.10;99.90;;;;;;5096550;28;20024;-75
2022/12/21 00:47:48;;;;;;;530.22;147.45;;;-1.10;99.90;;;;;;5096639;28;20024;-77
2022/12/21 00:50:13;;;;;;;391.92;122.53;;;-1.10;99.90;;;;;;5096372;28;20074;-74
2022/12/21 00:52:39;;;;;;;415.75;115.35;;;-1.10;99.90;;;;;;5096218;28;20020;-75
2022/12/21 00:55:05;;;;;;;351.00;109.40;;;-1.10;99.90;;;;;;5077996;28;20078;-76
2022/12/21 00:57:31;;;;;;;388.52;116.68;;;-1.10;99.90;;;;;;5074940;28;20028;-75
2022/12/21 00:59:56;;;;;;;518.03;139.25;;;-1.10;99.90;;;;;;5075632;28;20032;-76
2022/12/21 01:02:22;;;;;;;391.52;117.55;;;-1.10;99.90;;;;;;5075588;28;20099;-74
2022/12/21 01:04:48;;;;;;;452.95;139.43;;;-1.00;99.90;;;;;;5073826;28;20028;-75
2022/12/21 01:07:15;;;;;;;436.08;131.93;;;-1.00;99.90;;;;;;5074475;28;20028;-75
2022/12/21 01:09:41;;;;;;;395.73;126.03;;;-1.00;99.90;;;;;;5075448;28;20028;-75
2022/12/21 01:12:07;;;;;;;380.15;130.75;;;-1.00;99.90;;;;;;5075273;28;20040;-74
2022/12/21 01:14:32;;;;;;;389.05;120.07;;;-1.00;99.90;;;;;;5074834;28;20035;-74
2022/12/21 01:16:58;;;;;;;410.58;133.02;;;-1.10;99.90;;;;;;5074774;28;20426;-74
2022/12/21 01:19:24;;;;;;;372.58;127.40;;;-1.10;99.90;;;;;;5075336;28;20367;-74
2022/12/21 01:21:49;;;;;;;377.17;131.27;;;-1.00;99.90;;;;;;5074982;28;20017;-75
2022/12/21 01:24:15;;;;;;;341.83;121.00;;;-1.00;99.90;;;;;;5074597;28;20055;-76
2022/12/21 01:26:41;;;;;;;433.83;148.82;;;-1.00;99.90;;;;;;5074010;28;20028;-74
2022/12/21 01:29:06;;;;;;;369.90;129.63;;;-1.10;99.90;;;;;;5075107;28;20452;-75
2022/12/21 01:31:32;;;;;;;321.50;116.55;;;-1.10;99.90;;;;;;5074762;28;20013;-76
2022/12/21 01:33:58;;;;;;;336.38;119.32;;;-1.00;99.90;;;;;;5075449;28;20025;-74
2022/12/21 01:36:24;;;;;;;342.30;119.50;;;-1.10;99.90;;;;;;5075214;28;20052;-75
2022/12/21 01:38:50;;;;;;;327.25;118.93;;;-1.00;99.90;;;;;;5075447;28;20017;-74
2022/12/21 01:41:27;;;;;;;298.92;109.78;;;-1.10;99.90;;;;;;5075792;28;20070;-76
2022/12/21 01:43:59;;;;;;;278.40;101.13;;;-1.10;99.90;;;;;;5074800;28;20028;-76
2022/12/21 01:46:41;;;;;;;259.17;98.45;;;-1.10;99.90;;;;;;5074879;28;20085;-74
2022/12/21 01:49:09;;;;;;;;;;;-1.10;99.90;;;;;;5074917;28;20066;-76
2022/12/21 01:51:37;;;;;;;298.88;103.07;;;-1.10;99.90;;;;;;5074891;28;19911;-76
2022/12/21 01:54:16;;;;;;;245.35;90.72;;;-1.10;99.90;;;;;;5074546;28;20093;-74
2022/12/21 01:56:47;;;;;;;237.65;86.43;;;-1.10;99.90;;;;;;5074391;28;20016;-76
2022/12/21 01:59:54;;;;;;;231.68;83.32;;;-1.00;99.90;;;;;;5074248;28;20048;-76
2022/12/21 02:02:27;;;;;;;239.48;87.30;;;-1.00;99.90;;;;;;4997258;28;20034;-75
2022/12/21 02:04:56;;;;;;;235.32;84.22;;;-1.00;99.90;;;;;;5002634;28;20041;-76
2022/12/21 02:07:22;;;;;;;243.00;87.10;;;-1.00;99.90;;;;;;5001831;28;20037;-75
2022/12/21 02:09:50;;;;;;;283.38;103.35;;;-1.00;99.90;;;;;;5002679;28;20026;-75
2022/12/21 02:12:16;;;;;;;288.38;106.93;;;-1.00;99.90;;;;;;4984371;28;20094;-74
2022/12/21 02:14:46;;;;;;;277.30;103.97;;;-1.00;99.90;;;;;;5000815;28;20452;-75
2022/12/21 02:17:40;;;;;;;247.90;96.97;;;-1.00;99.90;;;;;;5002033;28;20029;-76
2022/12/21 02:20:44;;;;;;;259.35;98.85;;;-1.00;99.90;;;;;;4998603;28;20115;-75
2022/12/21 02:23:48;;;;;;;276.33;107.40;;;-0.90;99.90;;;;;;5004643;28;20030;-75
2022/12/21 02:26:35;;;;;;;297.23;113.35;;;-0.90;99.90;;;;;;4978051;28;20121;-75
2022/12/21 02:29:32;;;;;;;305.90;120.78;;;-0.90;99.90;;;;;;5003378;28;20042;-75
2022/12/21 02:32:17;;;;;;;285.73;114.43;;;-0.90;99.90;;;;;;4988077;28;20546;-75
2022/12/21 02:35:07;;;;;;;251.75;101.13;;;-0.90;99.90;;;;;;4999605;28;20133;-75
2022/12/21 02:38:14;;;;;;;264.60;104.60;;;-0.90;99.90;;;;;;5023948;28;20111;-77
2022/12/21 02:41:02;;;;;;;264.75;104.80;;;-0.90;99.90;;;;;;5069562;28;20086;-75
2022/12/21 02:46:46;;;;;;;285.35;105.63;;;-0.80;99.90;;;;;;5068856;28;20042;-75
2022/12/21 02:49:22;;;;;;;293.10;115.95;;;-0.80;99.90;;;;;;5073423;28;20027;-74
2022/12/21 02:51:52;;;;;;;295.25;118.78;;;-0.80;99.90;;;;;;5073050;28;20051;-75
2022/12/21 02:54:17;;;;;;;305.92;117.68;;;-0.80;99.90;;;;;;5072235;28;20084;-74
2022/12/21 02:56:43;;;;;;;282.80;115.10;;;-0.70;99.90;;;;;;5072527;28;20020;-75
2022/12/21 02:59:12;;;;;;;282.23;116.60;;;-0.70;99.90;;;;;;5072674;28;20016;-75
2022/12/21 03:01:47;;;;;;;273.25;110.70;;;-0.70;99.90;;;;;;5072132;28;20470;-74
2022/12/21 03:04:42;;;;;;;264.85;109.18;;;-0.80;99.90;;;;;;5073105;28;20093;-76
2022/12/21 03:07:13;;;;;;;244.65;97.70;;;-0.80;99.90;;;;;;5073085;28;20040;-75
2022/12/21 03:09:43;;;;;;;;;;;-0.80;99.90;;;;;;5073487;28;20024;-74
2022/12/21 03:12:46;;;;;;;234.82;91.80;;;-0.90;99.90;;;;;;5067182;28;19911;-76
2022/12/21 03:15:56;;;;;;;221.32;89.18;;;-0.90;99.90;;;;;;5070895;28;20020;-74
2022/12/21 03:18:42;;;;;;;221.73;91.72;;;-0.90;99.90;;;;;;5051059;28;20050;-75
2022/12/21 03:21:25;;;;;;;240.65;93.75;;;-0.90;99.90;;;;;;5072960;28;20033;-76
2022/12/21 03:24:10;;;;;;;230.77;97.15;;;-0.90;99.90;;;;;;5072814;28;20032;-75
2022/12/21 03:26:42;;;;;;;238.38;98.30;;;-0.90;99.90;;;;;;5068110;28;20044;-76
2022/12/21 03:29:11;;;;;;;250.35;101.75;;;-0.90;99.90;;;;;;5071764;28;20038;-75
2022/12/21 03:31:43;;;;;;;242.70;98.88;;;-0.90;99.90;;;;;;5071650;28;20024;-75
2022/12/21 03:34:18;;;;;;;242.88;100.03;;;-0.90;99.90;;;;;;5072520;28;20106;-76
2022/12/21 03:36:48;;;;;;;232.48;93.15;;;-0.90;99.90;;;;;;5073674;28;20017;-77
2022/12/21 03:39:18;;;;;;;213.77;89.75;;;-1.00;99.90;;;;;;5073413;28;20344;-75
2022/12/21 03:41:50;;;;;;;218.80;90.38;;;-1.00;99.90;;;;;;5073419;28;20024;-76
2022/12/21 03:44:22;;;;;;;229.63;93.25;;;-1.00;99.90;;;;;;5073855;28;20089;-76
2022/12/21 03:46:59;;;;;;;224.45;93.72;;;-1.00;99.90;;;;;;5073560;28;20040;-75
2022/12/21 03:49:40;;;;;;;215.57;90.53;;;-1.00;99.90;;;;;;5073791;28;20356;-76
2022/12/21 03:52:13;;;;;;;214.23;88.10;;;-1.00;99.90;;;;;;5073592;28;20020;-76
2022/12/21 03:55:01;;;;;;;200.32;86.53;;;-1.00;99.90;;;;;;5053619;28;20258;-76
2022/12/21 03:57:28;;;;;;;212.43;89.10;;;-1.00;99.90;;;;;;5053951;28;20023;-76
2022/12/21 03:59:58;;;;;;;211.35;86.93;;;-1.00;99.90;;;;;;5053386;28;20096;-75
2022/12/21 04:02:36;;;;;;;213.40;89.47;;;-1.00;99.90;;;;;;5070762;28;20066;-76
2022/12/21 04:05:25;;;;;;;229.55;94.35;;;-1.00;99.90;;;;;;5071437;28;20060;-75
2022/12/21 04:07:52;;;;;;;220.20;93.65;;;-1.00;99.90;;;;;;5081827;28;20033;-77
2022/12/21 04:10:20;;;;;;;230.32;96.72;;;-1.00;99.90;;;;;;5076331;28;20029;-75
2022/12/21 04:12:47;;;;;;;221.45;99.55;;;-1.00;99.90;;;;;;5075154;28;20027;-76
2022/12/21 04:15:21;;;;;;;233.13;102.25;;;-1.00;99.90;;;;;;5076085;28;20111;-76
2022/12/21 04:17:49;;;;;;;248.95;109.20;;;-1.00;99.90;;;;;;5074442;28;20502;-76
2022/12/21 04:20:24;;;;;;;293.75;122.13;;;-1.00;99.90;;;;;;5074727;28;20059;-73
2022/12/21 04:28:22;;;;;;;244.20;103.80;;;-1.00;99.90;;;;;;5070789;28;20382;-75
2022/12/21 04:30:48;;;;;;;248.95;104.25;;;-1.00;99.90;;;;;;5070103;28;20017;-76
2022/12/21 04:33:18;;;;;;;242.48;104.18;;;-1.00;99.90;;;;;;5075558;28;20494;-75
2022/12/21 04:38:31;;;;;;;249.23;105.38;;;-1.00;99.90;;;;;;5071220;28;20035;-76
2022/12/21 04:40:57;;;;;;;244.55;105.95;;;-1.00;99.90;;;;;;5075846;28;20026;-74
2022/12/21 04:43:24;;;;;;;265.35;110.82;;;-1.00;99.90;;;;;;5075895;28;20099;-75
2022/12/21 04:45:59;;;;;;;266.48;110.53;;;-1.00;99.90;;;;;;5072766;28;20024;-75
2022/12/21 04:48:24;;;;;;;258.27;105.57;;;-1.00;99.90;;;;;;5070868;28;20024;-74
2022/12/21 04:50:50;;;;;;;246.90;104.18;;;-1.00;99.90;;;;;;5074614;28;20020;-75
2022/12/21 04:53:15;;;;;;;238.43;102.18;;;-1.00;99.90;;;;;;5074983;28;20017;-74
2022/12/21 04:55:45;;;;;;;243.05;98.93;;;-1.00;99.90;;;;;;5075625;28;20023;-74
2022/12/21 04:58:11;;;;;;;215.82;94.43;;;-1.00;99.90;;;;;;5075425;28;20455;-76
2022/12/21 05:00:37;;;;;;;210.88;90.53;;;-1.10;99.90;;;;;;5075439;28;20031;-75
2022/12/21 05:03:02;;;;;;;219.93;90.68;;;-1.10;99.90;;;;;;5074098;28;20029;-74
2022/12/21 05:05:29;;;;;;;205.25;90.03;;;-1.20;99.90;;;;;;5074965;28;20051;-76
2022/12/21 05:07:55;;;;;;;211.38;90.97;;;-1.10;99.90;;;;;;5075429;28;20436;-74
2022/12/21 05:10:21;;;;;;;211.63;88.72;;;-1.10;99.90;;;;;;5075270;28;20016;-76
2022/12/21 05:12:46;;;;;;;225.90;88.85;;;-1.20;99.90;;;;;;5074909;28;20027;-76
2022/12/21 05:15:13;;;;;;;207.07;87.43;;;-1.20;99.90;;;;;;5074022;28;21366;-75
2022/12/21 05:17:39;;;;;;;212.32;89.20;;;-1.20;99.90;;;;;;5074749;28;20078;-76
2022/12/21 05:20:06;;;;;;;224.00;90.35;;;-1.20;99.90;;;;;;5074262;28;20367;-76
2022/12/21 05:22:32;;;;;;;216.13;92.93;;;-1.20;99.90;;;;;;5074880;28;20024;-75
2022/12/21 05:24:58;;;;;;;225.20;92.53;;;-1.20;99.90;;;;;;5074476;28;20039;-77
2022/12/21 05:27:24;;;;;;;223.43;92.55;;;-1.20;99.90;;;;;;5074719;28;20033;-75
2022/12/21 05:29:50;;;;;;;237.85;100.25;;;-1.10;99.90;;;;;;5074680;28;20108;-75
2022/12/21 05:32:16;;;;;;;244.95;101.35;;;-1.20;99.90;;;;;;5075256;28;20428;-77
2022/12/21 05:34:41;;;;;;;237.25;97.63;;;-1.20;99.90;;;;;;5074636;28;20028;-75
2022/12/21 05:37:07;;;;;;;246.82;99.78;;;-1.10;99.90;;;;;;5075761;28;20410;-76
2022/12/21 05:39:34;;;;;;;247.02;101.93;;;-1.10;99.90;;;;;;5075137;28;20024;-77
2022/12/21 05:42:01;;;;;;;247.95;102.20;;;-1.10;99.90;;;;;;5074808;28;20032;-75
2022/12/21 05:44:27;;;;;;;244.50;100.22;;;-1.10;99.90;;;;;;5074140;28;20339;-77
2022/12/21 05:46:53;;;;;;;253.75;102.28;;;-1.10;99.90;;;;;;5073292;28;20370;-76
2022/12/21 05:49:19;;;;;;;233.30;98.10;;;-1.10;99.90;;;;;;5073192;28;20020;-75
2022/12/21 05:51:49;;;;;;;239.10;99.10;;;-1.10;99.90;;;;;;5074594;28;20431;-75
2022/12/21 05:54:15;;;;;;;269.55;107.85;;;-1.10;99.90;;;;;;5072832;28;20428;-76
2022/12/21 05:56:41;;;;;;;257.23;104.55;;;-1.20;99.90;;;;;;5074203;28;20071;-77
2022/12/21 05:59:07;;;;;;;255.57;102.55;;;-1.10;99.90;;;;;;5074322;28;20021;-77
2022/12/21 06:01:33;;;;;;;262.83;106.13;;;-1.20;99.90;;;;;;5073138;28;20021;-78
2022/12/21 06:03:59;;;;;;;284.80;116.00;;;-1.20;99.90;;;;;;5072808;28;20082;-77
2022/12/21 06:06:24;;;;;;;328.42;138.35;;;-1.10;99.90;;;;;;5073701;28;20039;-74
2022/12/21 06:08:50;;;;;;;310.15;127.25;;;-1.10;99.90;;;;;;5072518;28;20028;-76
2022/12/21 06:11:25;;;;;;;311.20;130.20;;;-1.10;99.90;;;;;;5074272;28;20024;-76
2022/12/21 06:13:58;;;;;;;325.75;135.15;;;-1.10;99.90;;;;;;5072738;28;20052;-78
2022/12/21 06:16:26;;;;;;;443.67;182.38;;;-1.10;99.90;;;;;;5074323;28;20031;-77
2022/12/21 06:18:53;;;;;;;423.38;177.90;;;-1.10;99.90;;;;;;5071393;28;20127;-76
2022/12/21 06:21:20;;;;;;;421.95;181.45;;;-1.10;99.90;;;;;;5073037;28;20097;-76
2022/12/21 06:23:47;;;;;;;430.77;176.18;;;-1.10;99.90;;;;;;5072143;28;20047;-76
2022/12/21 06:26:18;;;;;;;421.88;180.50;;;-1.10;99.90;;;;;;5072122;28;20024;-77
2022/12/21 06:28:49;;;;;;;417.50;168.75;;;-1.10;99.90;;;;;;5073597;28;20051;-76
2022/12/21 06:31:16;;;;;;;393.92;166.73;;;-1.00;99.90;;;;;;5071184;28;20103;-78
2022/12/21 06:33:42;;;;;;;379.27;163.18;;;-1.10;99.90;;;;;;5073434;28;20035;-77
2022/12/21 06:36:09;;;;;;;395.73;167.43;;;-1.00;99.90;;;;;;5074291;28;20016;-78
2022/12/21 06:38:35;;;;;;;413.45;170.80;;;-1.10;99.90;;;;;;5074498;28;20025;-78
2022/12/21 06:41:06;;;;;;;381.30;163.95;;;-1.00;99.90;;;;;;5074173;28;20021;-76
2022/12/21 06:43:33;;;;;;;389.60;166.37;;;-1.00;99.90;;;;;;5072976;28;20028;-77
2022/12/21 06:46:05;;;;;;;394.60;173.93;;;-0.90;99.90;;;;;;5074337;28;20249;-77
2022/12/21 06:48:33;;;;;;;412.20;181.88;;;-0.90;99.90;;;;;;5073167;28;20108;-76
2022/12/21 06:51:05;;;;;;;442.85;195.75;;;-0.90;99.90;;;;;;5073136;28;20073;-76
2022/12/21 06:53:33;;;;;;;561.17;248.30;;;-0.80;99.90;;;;;;5073799;28;20046;-77
2022/12/21 06:56:11;;;;;;;576.13;264.98;;;-0.80;99.90;;;;;;5072864;28;20028;-76
2022/12/21 06:58:37;;;;;;;569.58;264.38;;;-0.80;99.90;;;;;;5072697;28;20017;-77
2022/12/21 07:01:04;;;;;;;566.83;263.52;;;-0.70;99.90;;;;;;5072282;28;20447;-77
2022/12/21 07:03:30;;;;;;;577.28;269.65;;;-0.50;99.90;;;;;;5073400;28;20052;-77
2022/12/21 07:05:56;;;;;;;557.53;257.00;;;-0.20;99.90;;;;;;5072574;28;20059;-77
2022/12/21 07:08:22;;;;;;;604.33;271.83;;;0.00;99.90;;;;;;5073863;28;20089;-77
2022/12/21 07:10:48;;;;;;;558.88;260.73;;;0.30;99.90;;;;;;5073799;28;20021;-75
2022/12/21 07:13:14;;;;;;;516.15;238.77;;;0.30;99.90;;;;;;5072714;28;20459;-76
2022/12/21 07:15:39;;;;;;;531.17;244.27;;;0.50;99.90;;;;;;5073813;28;20065;-76
2022/12/21 07:18:05;;;;;;;497.83;238.77;;;0.50;99.90;;;;;;5073673;28;20044;-75
2022/12/21 07:20:31;;;;;;;527.10;253.82;;;0.50;99.90;;;;;;5073899;28;20125;-76
2022/12/21 07:22:56;;;;;;;616.60;300.55;;;0.70;99.90;;;;;;5072572;28;20036;-77
2022/12/21 07:25:22;;;;;;;658.30;319.05;;;0.80;99.90;;;;;;5072236;28;20455;-76
2022/12/21 07:27:48;;;;;;;548.85;254.23;;;1.00;99.90;;;;;;5073616;28;20027;-77
2022/12/21 07:30:14;;;;;;;459.08;211.75;;;1.00;99.90;;;;;;5072426;28;20017;-78
2022/12/21 07:32:39;;;;;;;381.77;175.50;;;1.00;99.90;;;;;;5073614;28;20021;-77
2022/12/21 07:35:06;;;;;;;343.98;153.35;;;1.00;99.90;;;;;;5072423;28;20028;-79
2022/12/21 07:37:32;;;;;;;338.63;150.27;;;1.10;99.90;;;;;;5073707;28;20027;-76
2022/12/21 07:39:58;;;;;;;398.13;171.77;;;1.00;99.90;;;;;;5073488;28;20475;-77
2022/12/21 07:42:24;;;;;;;379.83;176.23;;;1.00;99.90;;;;;;5074813;28;20028;-77
2022/12/21 07:44:50;;;;;;;411.58;196.57;;;1.20;99.90;;;;;;5076205;28;20115;-77
2022/12/21 07:47:15;;;;;;;406.75;195.35;;;1.30;99.90;;;;;;5077545;28;20032;-77
2022/12/21 07:49:41;;;;;;;443.95;221.35;;;1.40;99.90;;;;;;5077334;28;20065;-76
2022/12/21 07:52:07;;;;;;;393.23;191.45;;;1.50;99.90;;;;;;5076379;28;20024;-76
2022/12/21 07:54:32;;;;;;;406.42;194.85;;;1.60;99.90;;;;;;5077413;28;20024;-77
2022/12/21 07:56:59;;;;;;;392.88;189.75;;;1.70;99.90;;;;;;5077482;28;20365;-78
2022/12/21 07:59:25;;;;;;;349.80;158.15;;;1.70;99.90;;;;;;5077428;28;20020;-76
2022/12/21 08:01:50;;;;;;;350.58;155.70;;;1.70;99.90;;;;;;5076329;28;20025;-77
2022/12/21 08:04:16;;;;;;;484.77;243.20;;;1.80;99.90;;;;;;5076960;28;20521;-76
2022/12/21 08:06:42;;;;;;;473.08;239.45;;;1.90;99.90;;;;;;5075995;28;20116;-78
2022/12/21 08:09:09;;;;;;;590.92;318.38;;;2.20;99.90;;;;;;5077058;28;20017;-77
2022/12/21 08:11:35;;;;;;;490.23;252.32;;;2.30;99.90;;;;;;5075895;28;20021;-77
2022/12/21 08:14:01;;;;;;;459.17;234.10;;;2.20;99.90;;;;;;5076985;28;20025;-77
2022/12/21 08:16:26;;;;;;;386.85;187.38;;;2.20;99.90;;;;;;5075936;28;20098;-79
2022/12/21 08:18:55;;;;;;;469.27;256.60;;;2.40;99.90;;;;;;5075053;28;20037;-76
2022/12/21 08:21:21;;;;;;;418.98;207.43;;;2.40;99.90;;;;;;5076928;28;20016;-76
2022/12/21 08:23:48;;;;;;;650.03;374.42;;;2.30;99.90;;;;;;5076693;28;20036;-77
2022/12/21 08:26:14;;;;;;;400.52;237.52;;;2.20;99.90;;;;;;5076862;28;20017;-77
2022/12/21 08:28:41;;;;;;;325.02;184.98;;;2.20;99.90;;;;;;5076525;28;20054;-79
2022/12/21 08:31:12;;;;;;;224.48;114.82;;;2.30;99.90;;;;;;5076939;28;20034;-77
2022/12/21 08:33:41;;;;;;;;;;;2.40;99.90;;;;;;5075931;28;20029;-78
2022/12/21 08:36:12;;;;;;;196.07;90.35;;;2.40;99.90;;;;;;5075635;28;20217;-77
2022/12/21 08:38:38;;;;;;;195.32;92.68;;;2.50;99.90;;;;;;5075580;28;20020;-79
2022/12/21 08:41:04;;;;;;;209.02;91.85;;;2.50;99.90;;;;;;5077011;28;20028;-78
2022/12/21 08:43:30;;;;;;;214.50;98.97;;;2.60;99.90;;;;;;5075169;28;20031;-78
2022/12/21 08:45:56;;;;;;;196.35;92.70;;;2.70;99.90;;;;;;5076515;28;20040;-77
2022/12/21 08:48:22;;;;;;;212.75;101.63;;;2.80;99.90;;;;;;5076310;28;20067;-78
2022/12/21 08:50:52;;;;;;;228.13;109.75;;;3.00;99.90;;;;;;5076407;28;20016;-78
2022/12/21 08:53:18;;;;;;;207.95;97.72;;;3.10;99.90;;;;;;5075604;28;20024;-78
2022/12/21 08:55:43;;;;;;;221.57;103.57;;;3.20;99.90;;;;;;5075596;28;20028;-77
2022/12/21 08:58:09;;;;;;;225.98;102.75;;;3.30;99.90;;;;;;5075146;28;20336;-77
2022/12/21 09:00:35;;;;;;;211.35;99.95;;;3.40;99.90;;;;;;5076254;28;20402;-79
2022/12/21 09:03:01;;;;;;;204.25;99.00;;;3.60;99.90;;;;;;5076140;28;20051;-77
2022/12/21 09:05:26;;;;;;;210.00;99.20;;;3.60;99.90;;;;;;5074928;28;20064;-76
2022/12/21 09:07:52;;;;;;;226.07;113.90;;;3.80;99.90;;;;;;5076170;28;20028;-76
2022/12/21 09:10:18;;;;;;;219.18;100.68;;;3.80;99.90;;;;;;5075730;28;20078;-78
2022/12/21 09:12:45;;;;;;;230.15;113.93;;;4.00;99.90;;;;;;5076426;28;20021;-79
2022/12/21 09:15:11;;;;;;;222.20;107.30;;;4.10;99.90;;;;;;5076034;28;20078;-75
2022/12/21 09:17:36;;;;;;;245.98;119.40;;;4.20;99.90;;;;;;5075829;28;20080;-77
2022/12/21 09:20:02;;;;;;;255.75;135.00;;;4.40;99.90;;;;;;5075661;28;20020;-78
2022/12/21 09:22:28;;;;;;;238.20;107.60;;;4.50;99.90;;;;;;5076157;28;20120;-77
2022/12/21 09:24:54;;;;;;;258.98;117.93;;;4.70;99.90;;;;;;5074422;28;20028;-78
2022/12/21 09:27:20;;;;;;;256.73;112.40;;;4.80;99.90;;;;;;5075820;28;20755;-80
2022/12/21 09:29:45;;;;;;;221.02;106.32;;;5.00;99.90;;;;;;5074108;28;20473;-80
2022/12/21 09:32:11;;;;;;;233.18;110.00;;;5.20;99.90;;;;;;5074311;28;20024;-79
2022/12/21 09:34:37;;;;;;;212.57;104.90;;;5.50;99.90;;;;;;5074398;28;20120;-78
2022/12/21 09:37:02;;;;;;;382.95;206.88;;;5.50;99.90;;;;;;5075452;28;20028;-78
2022/12/21 09:39:28;;;;;;;264.58;121.05;;;5.80;99.90;;;;;;5075218;28;20481;-79
2022/12/21 09:42:20;;;;;;;236.88;115.20;;;5.70;99.90;;;;;;5075203;28;20444;-81
2022/12/21 09:45:01;;;;;;;248.63;121.30;;;5.60;99.90;;;;;;5075080;28;20126;-80
2022/12/21 09:47:40;;;;;;;148.23;69.97;;;5.60;99.90;;;;;;5075307;28;20536;-79
2022/12/21 09:50:12;;;;;;;250.75;131.32;;;6.00;99.90;;;;;;5075672;28;20024;-80
2022/12/21 09:52:42;;;;;;;220.02;110.78;;;6.70;99.90;;;;;;5074016;28;20021;-79
2022/12/21 09:55:18;;;;;;;202.32;100.72;;;7.40;99.90;;;;;;5075385;28;20422;-79
2022/12/21 09:57:45;;;;;;;206.00;103.35;;;7.80;99.90;;;;;;5075007;28;20020;-78
2022/12/21 10:00:19;;;;;;;197.40;99.95;;;8.40;99.90;;;;;;5073812;28;20020;-78
2022/12/21 10:02:50;;;;;;;206.68;102.88;;;8.20;98.10;;;;;;5073820;28;20055;-78
2022/12/21 10:05:38;;;;;;;203.68;106.75;;;8.60;98.00;;;;;;5075155;28;20131;-79
2022/12/21 10:08:36;;;;;;;191.25;103.75;;;8.90;97.40;;;;;;5075177;28;20448;-79
2022/12/21 10:11:50;;;;;;;185.23;99.05;;;9.00;94.10;;;;;;5074841;28;20024;-80
2022/12/21 10:14:29;;;;;;;194.63;104.20;;;8.70;92.10;;;;;;5056978;28;20040;-79
2022/12/21 10:17:11;;;;;;;202.93;105.47;;;8.90;93.10;;;;;;5073325;28;20086;-79
2022/12/21 10:19:48;;;;;;;360.85;194.18;;;9.30;92.20;;;;;;5073389;28;20078;-78
2022/12/21 10:22:24;;;;;;;245.43;133.95;;;9.70;90.50;;;;;;5075087;28;20070;-79
2022/12/21 10:24:56;;;;;;;225.98;123.78;;;10.00;89.30;;;;;;5074635;28;20062;-80
2022/12/21 10:27:28;;;;;;;188.20;99.78;;;10.50;89.70;;;;;;5074989;28;20024;-79
2022/12/21 10:29:57;;;;;;;224.98;111.00;;;10.60;84.70;;;;;;5073407;28;20511;-80
2022/12/21 10:32:27;;;;;;;177.75;97.07;;;11.00;84.20;;;;;;5074493;28;20030;-79
2022/12/21 10:34:55;;;;;;;174.52;95.82;;;10.90;82.10;;;;;;5074354;28;20032;-80
2022/12/21 10:37:21;;;;;;;168.00;92.78;;;10.90;80.90;;;;;;5074349;28;20452;-80
2022/12/21 10:39:55;;;;;;;165.70;87.85;;;10.50;80.50;;;;;;5073158;28;20052;-79
2022/12/21 10:42:52;;;;;;;173.75;91.53;;;10.70;81.20;;;;;;5074363;28;20456;-82
2022/12/21 10:45:20;;;;;;;173.82;94.72;;;10.70;80.60;;;;;;4992569;28;20038;-79
2022/12/21 10:47:46;;;;;;;169.45;92.13;;;10.60;79.80;;;;;;4992746;28;20022;-77
2022/12/21 10:50:21;;;;;;;186.48;97.38;;;10.50;79.70;;;;;;4993006;28;20194;-77
2022/12/21 10:52:52;;;;;;;229.80;116.57;;;10.40;79.80;;;;;;4992660;28;20354;-79
2022/12/21 10:55:17;;;;;;;195.82;102.85;;;10.50;81.40;;;;;;4992652;28;20038;-80
2022/12/21 10:57:50;;;;;;;182.10;96.20;;;10.50;79.80;;;;;;4992476;28;20033;-77
2022/12/21 11:00:23;;;;;;;180.82;95.70;;;10.50;80.60;;;;;;4976082;28;20018;-79
2022/12/21 11:02:51;;;;;;;187.63;103.13;;;10.60;78.70;;;;;;4992196;28;20120;-77
2022/12/21 11:05:31;;;;;;;201.05;104.97;;;10.50;77.40;;;;;;4992428;28;20070;-79
2022/12/21 11:08:23;;;;;;;196.20;107.10;;;10.40;76.80;;;;;;4992536;28;20057;-79
2022/12/21 11:10:52;;;;;;;203.43;111.85;;;10.60;78.20;;;;;;4976235;28;20026;-78
2022/12/21 11:13:19;;;;;;;197.95;109.57;;;10.30;79.00;;;;;;4975927;28;20022;-80
2022/12/21 11:15:55;;;;;;;235.10;116.53;;;10.00;78.90;;;;;;4992094;28;20038;-78
2022/12/21 11:18:34;;;;;;;225.43;116.55;;;10.40;79.40;;;;;;4975489;28;20406;-78
2022/12/21 11:21:02;;;;;;;214.65;113.78;;;10.70;78.20;;;;;;4996101;28;20520;-78
2022/12/21 11:23:29;;;;;;;218.73;114.75;;;10.90;78.00;;;;;;5073508;28;20025;-79
2022/12/21 11:25:55;;;;;;;253.20;128.73;;;11.10;76.90;;;;;;5072508;28;20103;-80
2022/12/21 11:28:23;;;;;;;217.43;116.70;;;11.40;76.90;;;;;;5073508;28;20024;-78
2022/12/21 11:30:56;;;;;;;245.20;126.57;;;11.20;75.80;;;;;;5073799;28;20024;-79
2022/12/21 11:33:22;;;;;;;236.05;127.35;;;10.90;75.70;;;;;;5076853;28;20088;-78
2022/12/21 11:36:09;;;;;;;232.45;126.28;;;11.00;77.80;;;;;;5072892;28;20024;-78
2022/12/21 11:38:35;;;;;;;232.80;124.65;;;11.10;78.00;;;;;;5073633;28;20021;-79
2022/12/21 11:41:01;;;;;;;230.75;128.32;;;11.30;78.40;;;;;;5073314;28;20013;-79
2022/12/21 11:43:27;;;;;;;249.05;131.73;;;11.30;76.50;;;;;;5072269;28;20121;-78
2022/12/21 11:46:35;;;;;;;221.48;119.75;;;11.20;76.60;;;;;;5073654;28;20451;-78
2022/12/21 11:49:33;;;;;;;230.50;121.35;;;10.60;77.90;;;;;;5073588;28;20017;-80
2022/12/21 11:52:23;;;;;;;224.45;117.38;;;10.00;79.40;;;;;;5072156;28;20509;-78
2022/12/21 11:54:57;;;;;;;222.93;115.80;;;9.60;81.60;;;;;;5073523;28;20459;-78
2022/12/21 11:58:06;;;;;;;240.45;129.70;;;9.20;83.50;;;;;;5072324;28;20027;-78
2022/12/21 12:00:41;;;;;;;209.05;110.20;;;9.10;85.90;;;;;;5072226;28;20021;-78
2022/12/21 12:03:27;;;;;;;250.93;126.28;;;8.90;86.60;;;;;;5072162;28;20355;-78
2022/12/21 12:05:56;;;;;;;232.20;117.05;;;8.90;88.70;;;;;;5071898;28;20035;-78
2022/12/21 12:08:37;;;;;;;227.10;114.53;;;8.80;90.10;;;;;;5073224;28;20021;-79
2022/12/21 12:11:28;;;;;;;239.85;122.93;;;8.70;90.60;;;;;;5072283;28;20117;-78
2022/12/21 12:14:33;;;;;;;252.13;127.45;;;8.70;91.70;;;;;;5073500;28;20024;-79
2022/12/21 12:17:27;;;;;;;286.70;140.32;;;8.60;91.80;;;;;;5073005;28;20017;-76
2022/12/21 12:20:18;;;;;;;282.73;138.90;;;8.60;92.60;;;;;;5072677;28;20068;-76
2022/12/21 12:23:09;;;;;;;248.23;124.45;;;8.50;93.00;;;;;;5071546;28;20112;-77
2022/12/21 12:25:38;;;;;;;278.55;144.48;;;8.50;93.10;;;;;;5071852;28;20115;-77
2022/12/21 12:28:09;;;;;;;266.02;131.50;;;8.50;93.80;;;;;;5073216;28;20025;-78
2022/12/21 12:30:57;;;;;;;278.27;135.68;;;8.50;94.80;;;;;;5076169;28;20027;-77
2022/12/21 12:33:33;;;;;;;268.85;130.32;;;8.50;95.30;;;;;;5076466;28;20103;-78
2022/12/21 12:36:07;;;;;;;268.83;131.65;;;8.50;95.50;;;;;;5075691;28;20551;-77
2022/12/21 12:39:07;;;;;;;263.83;133.52;;;8.50;96.20;;;;;;5075469;28;20465;-77
2022/12/21 12:41:50;;;;;;;271.60;137.98;;;8.50;97.60;;;;;;5076580;28;20024;-77
2022/12/21 12:44:34;;;;;;;412.38;230.10;;;8.50;97.10;;;;;;5075295;28;20082;-78
2022/12/21 12:47:14;;;;;;;313.48;160.73;;;8.50;96.90;;;;;;5075199;28;20035;-79